首页
METAR-TAF:

METAR-TAF

机场 :

Watertown Municipal Airport

Watertown, 威斯康辛州, 美国

纬度: 43-10N, 经度: 088-43W, 海拔: 254米

当前天气观测

该预报发布于10分钟前的06:55 UTC
风速5节,风向西北
温度 10°C
湿度 100%
气压 1008 hPa
能見度: 16.1公里
阴天层高于600英尺

METAR: KRYV 200655Z AUTO 32005KT 10SM OVC006 10/10 A2978 RMK AO2 T00970097

时间: 02:05 (07:05 UTC)


TAF: 丢失

超过4000个机场的气象观测和天气预报(METAR&TAF报告)。

可查询的气象台以黄色和红色小点在地图上表示。

将鼠标移到小点上方,可查看气象台名称。

然后点击查看天气观测和预报。

如需切换地图:点击带黑十字的绿色按钮放大地图;点击带横线的绿色按钮缩小地图;或者点击绿色箭头查看邻近地区的地图。


METAR-TAF: